Home   Weather   Spain   Granada   Past weeks
Flag for Spain

Past Weather in Granada, Granada, Spain — March 2021

Currently: 63 °F. Clear. (Weather station: Granada / Aeropuerto, Spain). See more current weather

March 2021 Weather in Granada — Graph

°F

High & Low Weather Summary for March 2021

 TemperatureHumidityPressure
High82 °F (Mar 31, 3:30 pm)100% (Mar 1, 2:30 am)30.39 "Hg (Mar 1, 2:30 am)
Low28 °F (Mar 21, 6:00 am)18% (Mar 31, 5:30 pm)29.80 "Hg (Mar 20, 3:30 am)
Average53 °F67%30.13 "Hg
* Reported Mar 1 12:00 am — Mar 31 11:30 pm, Granada. Weather by CustomWeather, © 2022

Note: Actual official high and low records may vary slightly from our data, if they occured in-between our weather recording intervals... More about our weather records

Granada Weather History for March 1, 2021

Scroll right to see more
 ConditionsComfort  
Time TempWeatherWind HumidityBarometerVisibility
12:00 am
Mon, Mar 1
48 °FPassing clouds.1 mph82%30.07 "HgN/A
12:30 am46 °FPassing clouds.No wind87%30.07 "HgN/A
1:00 am48 °FPassing clouds.5 mph82%30.07 "HgN/A
1:30 am48 °FMostly cloudy.1 mph82%30.07 "HgN/A
2:00 am48 °FLight rain. Mostly cloudy.1 mph94%30.07 "HgN/A
2:30 am46 °FRain. Partly cloudy.3 mph100%30.09 "Hg6 mi
3:00 am48 °FLight rain. Passing clouds.1 mph94%30.07 "HgN/A
3:30 am46 °FOvercast.1 mph100%30.07 "HgN/A
4:00 am46 °FPassing clouds.1 mph100%30.07 "HgN/A
4:30 am46 °FLight rain. Partly cloudy.No wind100%30.04 "HgN/A
5:00 am46 °FLight rain. Passing clouds.3 mph93%30.04 "HgN/A
5:30 am45 °FPassing clouds.3 mph100%30.04 "HgN/A
6:00 am45 °FPassing clouds.3 mph93%30.04 "HgN/A
6:30 am45 °FPassing clouds.3 mph93%30.04 "HgN/A
7:00 am43 °FPassing clouds.No wind100%30.04 "HgN/A
7:30 am41 °FPassing clouds.No wind100%30.04 "HgN/A
8:00 am41 °FScattered clouds.2 mph100%30.07 "HgN/A
8:30 am41 °FScattered clouds.2 mph100%30.07 "HgN/A
9:00 am41 °FScattered clouds.No wind100%30.07 "HgN/A
9:30 am45 °FScattered clouds.No wind100%30.07 "Hg6 mi
10:00 am46 °FScattered clouds.2 mph93%30.07 "Hg6 mi
10:30 am48 °FScattered clouds.No wind100%30.07 "Hg6 mi
11:00 am54 °FScattered clouds.No wind82%30.07 "Hg6 mi
11:30 am55 °FScattered clouds.2 mph77%30.07 "Hg6 mi
12:00 pm55 °FScattered clouds.1 mph72%30.07 "Hg6 mi
12:30 pm59 °FScattered clouds.1 mph63%30.07 "Hg6 mi
1:00 pm61 °FScattered clouds.1 mph63%30.07 "Hg6 mi
1:30 pm59 °FScattered clouds.5 mph68%30.04 "Hg6 mi
2:00 pm59 °FScattered clouds.6 mph63%30.04 "Hg6 mi
2:30 pm61 °FScattered clouds.5 mph63%30.04 "Hg6 mi
3:00 pm61 °FScattered clouds.2 mph59%30.04 "Hg6 mi
3:30 pm61 °FScattered clouds.5 mph59%30.04 "Hg6 mi
4:00 pm61 °FScattered clouds.5 mph63%30.04 "Hg6 mi
4:30 pm63 °FScattered clouds.7 mph59%30.04 "Hg6 mi
5:00 pm59 °FPartly sunny.10 mph68%30.04 "Hg6 mi
5:30 pm57 °FPartly sunny.12 mph72%30.04 "Hg6 mi
6:00 pm57 °FPartly sunny.7 mph72%30.04 "Hg6 mi
6:30 pm55 °FPartly sunny.9 mph77%30.07 "Hg6 mi
7:00 pm55 °FPartly sunny.10 mph72%30.07 "Hg5 mi
7:30 pm54 °FPassing clouds.9 mph77%30.07 "Hg5 mi
8:00 pm54 °FPassing clouds.2 mph77%30.07 "Hg5 mi
8:30 pm54 °FPassing clouds.9 mph77%30.09 "Hg5 mi
9:00 pm54 °FPassing clouds.8 mph77%30.09 "Hg5 mi
9:30 pm52 °FPassing clouds.2 mph82%30.09 "Hg6 mi
10:00 pm50 °FPassing clouds.3 mph88%30.12 "Hg6 mi
10:30 pm50 °FPassing clouds.2 mph88%30.12 "Hg6 mi
11:00 pm48 °FPassing clouds.2 mph94%30.12 "Hg6 mi
11:30 pm48 °FClear.5 mph94%30.15 "Hg10 mi
Weather by CustomWeather, © 2022

See weather overview